Aransas Pass, Texas
Current Conditions -  °F | °C
As of 12:35 AM on Sunday 21 Dec 2014 (Local Time) from KTFP Reporting Station
Haze Haze  
Wind Chill: 54°   Ceiling: 1400
Heat Index: 54°   Visibility: 5mi
Dew Point: 53°   Wind: 6mph
Humidity: 94%   Direction: 340°NNW
Pressure: 30.16"   Gusts: NA
Location:  27.9°N, 97.15°W
Report Text: KTFP 210635Z AUTO 34005KT 5SM BR SCT005 OVC014 12/11 A3016 RMK AO2 T01240114
Loading
Personal Weather Stations






























Interactive Weather Map New forecast layout! Learn more

10-Day Weather Forecast

Advertisements
Track Severe Weather on mobile